Time;durP1;ratioP1;P1;durP2;ratioP2;P2;SDS_P1;SDS_P2;PMS_P1;PMS_P2;Temp;Humidity;BMP_temperature;BMP_pressure;BME280_temperature;BME280_humidity;BME280_pressure;Samples;Min_cycle;Max_cycle;Signal;HPM_P1;HPM_P2
2022/01/26 00:05:43;;;;;;;6.88;1.88;;;;;;;26.16;30.58;97875.66;4925500;28;20055;-61
2022/01/26 00:06:26;;;;;;;3.70;1.80;;;;;;;26.10;30.54;97861.81;4921702;28;20050;-61
2022/01/26 00:08:52;;;;;;;3.63;1.98;;;;;;;26.14;30.63;97872.19;4923099;29;20031;-61
2022/01/26 00:11:17;;;;;;;3.45;1.75;;;;;;;26.13;30.51;97866.09;4924056;29;20036;-60
2022/01/26 00:13:43;;;;;;;3.17;1.95;;;;;;;26.13;30.52;97870.50;4923283;29;20023;-61
2022/01/26 00:16:16;;;;;;;4.00;1.90;;;;;;;26.13;30.52;97871.38;4919743;29;20054;-60
2022/01/26 00:18:41;;;;;;;3.22;1.75;;;;;;;26.14;30.27;97877.44;4920892;29;20023;-60
2022/01/26 00:21:16;;;;;;;6.13;2.10;;;;;;;26.11;30.45;97873.19;4922755;29;20034;-61
2022/01/26 00:26:25;;;;;;;1.90;1.70;;;;;;;26.12;30.28;97871.41;4920485;29;20038;-62
2022/01/26 00:29:08;;;;;;;2.83;2.05;;;;;;;26.13;30.43;97874.00;4928116;28;21066;-61
2022/01/26 00:39:58;;;;;;;4.55;1.90;;;;;;;26.11;30.20;97862.66;4922697;28;20075;-61
2022/01/26 00:42:23;;;;;;;3.08;2.10;;;;;;;26.07;30.11;97861.94;4922632;28;20154;-61
2022/01/26 00:44:50;;;;;;;4.88;2.10;;;;;;;26.07;30.11;97861.94;4920959;29;20031;-60
2022/01/26 00:47:15;;;;;;;3.38;1.98;;;;;;;26.09;30.30;97860.09;4921351;28;20557;-62
2022/01/26 00:49:41;;;;;;;4.93;1.90;;;;;;;26.10;30.23;97866.22;4918115;29;20038;-61
2022/01/26 00:52:11;;;;;;;3.58;1.85;;;;;;;26.11;30.33;97867.91;4921103;28;20031;-60
2022/01/26 00:54:37;;;;;;;3.08;1.90;;;;;;;26.09;30.63;97864.50;4924846;29;20059;-60
2022/01/26 00:57:02;;;;;;;3.30;2.22;;;;;;;26.10;30.09;97871.47;4922680;29;20501;-60
2022/01/26 00:59:28;;;;;;;4.22;2.00;;;;;;;26.09;30.03;97873.22;4919386;28;20689;-61
2022/01/26 01:01:55;;;;;;;3.88;2.10;;;;;;;26.09;30.63;97875.84;4919964;29;20038;-61
2022/01/26 01:04:20;;;;;;;2.13;1.80;;;;;;;26.08;30.41;97879.41;4920277;29;20125;-61
2022/01/26 01:06:52;;;;;;;3.90;2.00;;;;;;;26.09;30.40;97877.66;4918524;29;20039;-60
2022/01/26 01:09:20;;;;;;;;;;;;;;;26.08;30.37;97887.28;4922376;28;20505;-61
2022/01/26 01:11:45;;;;;;;3.85;2.20;;;;;;;26.06;30.46;97883.88;4924258;29;19928;-60
2022/01/26 01:14:11;;;;;;;2.40;1.67;;;;;;;26.07;30.23;97882.94;4924213;29;20612;-60
2022/01/26 01:16:36;;;;;;;4.35;2.00;;;;;;;26.05;30.29;97890.00;4922608;29;20038;-59
2022/01/26 01:22:16;;;;;;;4.20;2.00;;;;;;;26.05;30.57;97899.69;4919983;29;20814;-61
2022/01/26 01:27:46;;;;;;;2.50;1.80;;;;;;;26.02;30.68;97895.41;4906127;29;20445;-60
2022/01/26 01:30:26;;;;;;;2.00;1.75;;;;;;;26.02;30.18;97900.66;4921303;29;20157;-61
2022/01/26 01:33:15;;;;;;;3.28;1.90;;;;;;;26.03;30.51;97912.88;4935893;28;20078;-60
2022/01/26 01:35:42;;;;;;;3.13;1.90;;;;;;;26.02;30.30;97900.66;4921534;29;20074;-61
2022/01/26 01:38:09;;;;;;;3.17;1.90;;;;;;;26.00;30.46;97896.38;4921934;29;20085;-61
2022/01/26 01:40:39;;;;;;;3.03;1.70;;;;;;;26.01;30.19;97896.28;4920993;28;20039;-61
2022/01/26 01:43:05;;;;;;;2.72;1.88;;;;;;;26.01;29.94;97896.28;4934656;28;20560;-60
2022/01/26 01:45:32;;;;;;;2.63;1.83;;;;;;;26.01;30.51;97891.03;4921982;29;20106;-60
2022/01/26 01:47:57;;;;;;;2.85;1.60;;;;;;;26.01;30.46;97898.91;4916039;29;20825;-61
2022/01/26 01:50:23;;;;;;;2.72;1.65;;;;;;;26.01;29.92;97898.91;4921954;28;20044;-61
2022/01/26 01:52:48;;;;;;;1.95;1.65;;;;;;;26.00;29.91;97891.97;4921210;29;20943;-60
2022/01/26 01:55:16;;;;;;;2.50;2.08;;;;;;;26.01;29.94;97892.81;4920533;29;21045;-61
2022/01/26 01:57:41;;;;;;;3.20;1.83;;;;;;;26.01;30.13;97898.06;4920442;29;20032;-58
2022/01/26 02:00:08;;;;;;;3.13;1.88;;;;;;;25.99;30.08;97890.25;4918411;28;20079;-61
2022/01/26 02:02:33;;;;;;;2.30;1.60;;;;;;;25.99;29.86;97892.88;4922501;29;20034;-60
2022/01/26 02:04:59;;;;;;;2.25;1.77;;;;;;;25.98;29.97;97887.69;4920199;28;20023;-59
2022/01/26 02:07:24;;;;;;;2.13;1.77;;;;;;;26.00;30.44;97901.63;4935142;28;20039;-61
2022/01/26 02:09:50;;;;;;;1.92;1.73;;;;;;;25.97;30.02;97897.31;4918791;28;20086;-58
2022/01/26 02:12:18;;;;;;;3.45;1.88;;;;;;;25.99;29.95;97900.75;4920698;29;20106;-60
2022/01/26 02:14:49;;;;;;;2.50;1.90;;;;;;;25.99;30.18;97892.88;4920068;29;20039;-59
2022/01/26 02:52:47;;;;;;;2.88;1.70;;;;;;;25.92;29.85;97894.88;4922316;29;20103;-61
2022/01/26 03:05:37;;;;;;;1.90;1.15;;;;;;;25.91;29.88;97903.66;4898951;29;20058;-60
2022/01/26 03:08:06;;;;;;;2.25;1.60;;;;;;;25.90;30.29;97901.09;4917551;28;20132;-62
2022/01/26 03:13:03;;;;;;;2.33;1.40;;;;;;;25.90;30.12;97895.84;4924968;28;20027;-61
2022/01/26 03:15:35;;;;;;;;;;;;;;;25.89;29.70;97892.34;4924095;28;20078;-61
2022/01/26 03:20:37;;;;;;;2.15;1.48;;;;;;;25.90;30.26;97877.47;4922211;28;20039;-61
2022/01/26 03:36:10;;;;;;;2.10;1.48;;;;;;;25.87;29.81;97872.31;4930504;28;20557;-61
2022/01/26 03:38:47;;;;;;;1.98;1.35;;;;;;;25.86;30.25;97878.47;4922127;28;20953;-61
2022/01/26 03:43:44;;;;;;;1.60;1.42;;;;;;;25.86;29.93;97878.47;4923704;29;20034;-61
2022/01/26 03:46:09;;;;;;;1.80;1.20;;;;;;;25.86;30.11;97881.09;4924561;29;20039;-61
2022/01/26 03:48:35;;;;;;;1.40;1.20;;;;;;;25.83;30.31;97890.78;4921068;28;20406;-61
2022/01/26 03:51:00;;;;;;;2.22;1.42;;;;;;;25.85;29.85;97892.53;4923597;29;20035;-61
2022/01/26 03:53:26;;;;;;;1.80;1.30;;;;;;;25.83;29.75;97893.41;4922372;29;20609;-60
2022/01/26 03:55:51;;;;;;;1.67;1.27;;;;;;;25.84;29.99;97896.91;4925852;29;20035;-60
2022/01/26 03:58:17;;;;;;;1.38;1.23;;;;;;;25.84;30.06;97902.16;4921638;29;20028;-60
2022/01/26 04:00:42;;;;;;;1.33;1.20;;;;;;;25.83;29.96;97901.28;4924835;28;20031;-60
2022/01/26 04:03:08;;;;;;;2.03;1.40;;;;;;;25.85;30.19;97897.78;4925197;29;20034;-60
2022/01/26 04:05:33;;;;;;;1.50;1.00;;;;;;;25.85;29.83;97908.28;4921798;29;20140;-60
2022/01/26 04:08:05;;;;;;;1.35;1.25;;;;;;;25.85;30.24;97909.13;4924096;29;20031;-61
2022/01/26 04:13:02;;;;;;;1.38;1.27;;;;;;;25.83;30.21;97906.53;4924301;29;20039;-61
2022/01/26 04:15:31;;;;;;;1.42;1.08;;;;;;;25.85;29.64;97903.03;4920686;29;20046;-60
2022/01/26 04:17:58;;;;;;;2.13;1.20;;;;;;;25.83;29.64;97901.28;4924091;28;20031;-59
2022/01/26 04:20:27;;;;;;;1.65;1.20;;;;;;;25.83;29.83;97906.53;4924236;28;20046;-61
2022/01/26 04:23:06;;;;;;;1.42;1.20;;;;;;;25.82;29.63;97896.97;4937565;28;20577;-61
2022/01/26 04:25:32;;;;;;;1.35;1.10;;;;;;;25.84;30.22;97902.16;4921014;29;20065;-60
2022/01/26 04:28:03;;;;;;;2.22;1.30;;;;;;;25.82;29.76;97899.59;4923173;29;20035;-62
2022/01/26 04:30:28;;;;;;;1.30;1.10;;;;;;;25.82;29.79;97893.50;4926456;29;20090;-59
2022/01/26 04:32:59;;;;;;;1.42;1.20;;;;;;;25.82;30.34;97893.50;4925201;29;20046;-61
2022/01/26 04:35:24;;;;;;;3.58;1.50;;;;;;;25.82;30.18;97896.97;4934306;28;20036;-60
2022/01/26 04:40:35;;;;;;;1.75;1.30;;;;;;;25.78;30.06;97882.22;4921284;28;20027;-59
2022/01/26 04:43:02;;;;;;;1.70;1.30;;;;;;;25.80;29.67;97896.16;4921632;29;20028;-59
2022/01/26 04:45:27;;;;;;;2.75;1.10;;;;;;;25.80;30.02;97885.66;4929842;29;20039;-59
2022/01/26 04:47:53;;;;;;;1.02;0.93;;;;;;;25.81;29.84;97883.88;4924223;29;20059;-61
2022/01/26 04:50:18;;;;;;;1.17;1.08;;;;;;;25.80;29.83;97887.44;4920789;29;20031;-60
2022/01/26 04:52:46;;;;;;;3.05;1.80;;;;;;;25.79;29.75;97881.34;4920784;29;20027;-60
2022/01/26 04:55:12;;;;;;;1.33;1.10;;;;;;;25.78;30.20;97882.22;4923123;29;20121;-60
2022/01/26 04:57:37;;;;;;;1.10;1.00;;;;;;;25.80;30.29;97885.66;4923173;29;20032;-60
2022/01/26 05:00:07;;;;;;;1.25;1.00;;;;;;;25.77;29.96;97883.16;4935505;28;20032;-61
2022/01/26 05:02:32;;;;;;;1.55;1.20;;;;;;;25.77;30.03;97891.03;4922267;29;20984;-59
2022/01/26 05:04:58;;;;;;;1.42;1.20;;;;;;;25.78;30.09;97892.72;4923561;29;20032;-60
2022/01/26 05:07:23;;;;;;;1.80;1.20;;;;;;;25.77;30.33;97893.66;4921468;29;20782;-61
2022/01/26 05:09:49;;;;;;;1.52;1.15;;;;;;;25.77;29.81;97891.03;4928318;28;21474;-60
2022/01/26 05:12:15;;;;;;;2.65;1.20;;;;;;;25.77;29.92;97885.78;4921542;28;20164;-60
2022/01/26 05:14:43;;;;;;;2.03;1.10;;;;;;;25.77;30.11;97880.53;4920030;29;20027;-58
2022/01/26 05:17:08;;;;;;;2.58;1.40;;;;;;;25.76;30.17;97878.81;4919919;28;20031;-61
2022/01/26 05:19:34;;;;;;;1.30;1.20;;;;;;;25.77;29.84;97870.00;4922273;28;20034;-61
2022/01/26 05:21:59;;;;;;;1.35;1.25;;;;;;;25.76;29.77;97868.31;4921802;29;20050;-61
2022/01/26 05:24:25;;;;;;;1.67;0.98;;;;;;;25.75;30.20;97877.09;4920927;29;20035;-61
2022/01/26 05:26:50;;;;;;;1.38;1.27;;;;;;;25.76;30.06;97878.81;4922014;28;20042;-61
2022/01/26 05:29:15;;;;;;;2.17;0.90;;;;;;;25.75;29.83;97882.34;4920926;28;20034;-61
2022/01/26 05:31:41;;;;;;;1.17;1.08;;;;;;;25.75;30.26;97877.09;4924169;29;20855;-61
2022/01/26 05:34:07;;;;;;;1.40;1.20;;;;;;;25.75;30.09;97878.88;4917502;28;20039;-60
2022/01/26 05:36:32;;;;;;;1.40;1.30;;;;;;;25.75;30.35;97882.34;4921133;29;20027;-60
2022/01/26 05:38:58;;;;;;;1.40;1.00;;;;;;;25.74;30.26;97885.88;4921917;28;20123;-60
2022/01/26 05:41:23;;;;;;;1.33;1.00;;;;;;;25.75;29.80;97882.34;4919903;28;20039;-60
2022/01/26 05:43:48;;;;;;;1.20;1.10;;;;;;;25.74;30.35;97875.38;4918792;29;20847;-61
2022/01/26 05:46:22;;;;;;;1.17;1.08;;;;;;;25.74;30.01;97870.13;4918626;29;20039;-63
2022/01/26 05:48:49;;;;;;;3.08;1.10;;;;;;;25.74;30.13;97869.28;4924379;29;20023;-59
2022/01/26 05:51:16;;;;;;;1.90;1.15;;;;;;;25.73;30.30;97878.91;4938489;28;20042;-61
2022/01/26 05:53:41;;;;;;;1.23;1.13;;;;;;;25.73;30.13;97889.41;4919714;28;20096;-61
2022/01/26 05:56:07;;;;;;;1.38;1.10;;;;;;;25.72;29.75;97885.09;4921950;28;20980;-61
2022/01/26 05:58:32;;;;;;;1.48;1.13;;;;;;;25.72;29.96;97887.72;4925593;29;20082;-61
2022/01/26 06:00:59;;;;;;;1.40;1.15;;;;;;;25.71;29.95;97891.25;4919394;29;20035;-60
2022/01/26 06:03:25;;;;;;;0.90;0.80;;;;;;;25.72;30.18;97889.47;4921787;28;20066;-60
2022/01/26 06:05:50;;;;;;;1.35;1.23;;;;;;;25.71;30.10;97886.00;4923151;29;20914;-62
2022/01/26 06:08:16;;;;;;;1.33;1.08;;;;;;;25.69;29.86;97877.31;4922527;28;20035;-61
2022/01/26 06:10:41;;;;;;;1.10;1.00;;;;;;;25.72;30.45;97881.59;4911145;29;20027;-61
2022/01/26 06:13:07;;;;;;;1.20;1.10;;;;;;;25.70;29.69;97877.25;4932223;28;20058;-59
2022/01/26 06:15:32;;;;;;;1.35;1.08;;;;;;;25.72;29.95;97889.47;4917304;29;20032;-61
2022/01/26 06:17:58;;;;;;;1.48;1.30;;;;;;;25.70;30.40;97886.88;4917827;28;20044;-61
2022/01/26 06:20:23;;;;;;;4.10;3.00;;;;;;;25.69;29.54;97885.19;4923033;28;20031;-60
2022/01/26 06:22:49;;;;;;;1.88;1.60;;;;;;;25.69;29.90;97893.06;4921064;29;20741;-60
2022/01/26 06:25:15;;;;;;;1.40;1.30;;;;;;;25.68;30.10;97881.72;4918718;28;20648;-61
2022/01/26 06:27:43;;;;;;;1.58;1.40;;;;;;;25.69;30.17;97874.69;4938363;28;20067;-61
2022/01/26 06:30:09;;;;;;;1.73;1.10;;;;;;;25.69;30.31;97874.69;4922322;29;20505;-61
2022/01/26 06:32:37;;;;;;;1.40;1.20;;;;;;;25.69;30.07;97872.06;4925252;28;20031;-61
2022/01/26 06:35:02;;;;;;;1.13;1.02;;;;;;;25.69;29.82;97877.31;4921199;29;20712;-62
2022/01/26 06:37:28;;;;;;;1.90;1.20;;;;;;;25.67;29.88;97858.13;4931320;28;20036;-61
2022/01/26 06:39:53;;;;;;;1.10;1.00;;;;;;;25.70;30.07;97863.25;4921834;28;20051;-61
2022/01/26 06:42:24;;;;;;;1.95;1.10;;;;;;;25.70;29.74;97873.75;4921491;28;20082;-61
2022/01/26 06:49:52;;;;;;;1.23;1.13;;;;;;;25.72;29.88;97871.09;4920630;28;20386;-61
2022/01/26 06:52:18;;;;;;;1.50;1.25;;;;;;;25.72;30.05;97871.94;4924662;29;20039;-60
2022/01/26 06:54:43;;;;;;;1.75;1.20;;;;;;;25.73;29.89;97873.66;4925029;28;20137;-60
2022/01/26 06:57:08;;;;;;;1.00;0.90;;;;;;;25.67;29.98;97855.53;4922758;29;20527;-61
2022/01/26 06:59:34;;;;;;;1.40;1.20;;;;;;;25.73;29.89;97868.41;4926616;28;20027;-61
2022/01/26 07:01:59;;;;;;;1.88;1.20;;;;;;;25.74;30.16;97867.50;4922087;29;20138;-61
2022/01/26 07:04:25;;;;;;;2.55;1.00;;;;;;;25.73;30.12;97868.41;4921721;29;20042;-59
2022/01/26 07:06:50;;;;;;;1.20;1.10;;;;;;;25.74;29.63;97875.38;4920526;29;20058;-61
2022/01/26 07:09:16;;;;;;;1.40;1.30;;;;;;;25.74;30.25;97870.13;4925331;28;20627;-61
2022/01/26 07:11:42;;;;;;;1.02;1.02;;;;;;;25.75;30.27;97877.09;4923280;29;20038;-61
2022/01/26 07:14:10;;;;;;;0.93;0.93;;;;;;;25.76;29.74;97876.19;4919773;29;20038;-61
2022/01/26 07:22:03;;;;;;;1.20;1.10;;;;;;;25.77;29.64;97888.41;4922552;29;20062;-60
2022/01/26 07:24:29;;;;;;;2.25;0.85;;;;;;;25.76;29.64;97894.56;4923754;29;20031;-59
2022/01/26 07:26:54;;;;;;;1.38;1.10;;;;;;;25.77;29.66;97903.28;4922757;28;20046;-62
2022/01/26 07:29:23;;;;;;;1.00;0.90;;;;;;;25.78;29.82;97908.47;4920562;28;20035;-59
2022/01/26 07:31:48;;;;;;;1.23;1.10;;;;;;;25.78;29.63;97907.66;4937694;28;20216;-59
2022/01/26 07:34:14;;;;;;;1.13;1.02;;;;;;;25.77;29.67;97909.41;4923430;29;20035;-60
2022/01/26 07:36:41;;;;;;;1.30;0.90;;;;;;;25.77;29.72;97900.66;4919565;29;20038;-62
2022/01/26 07:39:09;;;;;;;1.48;1.23;;;;;;;25.79;29.73;97899.72;4924114;29;20028;-61
2022/01/26 07:41:35;;;;;;;1.50;1.40;;;;;;;25.79;30.00;97901.47;4921856;29;20035;-61
2022/01/26 07:44:01;;;;;;;7.03;1.25;;;;;;;25.80;30.01;97903.19;4922234;29;20024;-60
2022/01/26 07:46:27;;;;;;;4.63;1.90;;;;;;;25.78;29.99;97897.97;4923661;29;20046;-60
2022/01/26 07:48:53;;;;;;;8.27;3.80;;;;;;;25.75;29.82;97905.97;4919645;28;20151;-61
2022/01/26 07:51:19;;;;;;;15.43;4.28;;;;;;;25.79;30.00;97915.47;4919092;28;20028;-60
2022/01/26 07:53:45;;;;;;;22.88;4.38;;;;;;;25.77;29.22;97922.53;4921409;28;20027;-62
2022/01/26 07:56:10;;;;;;;11.80;4.60;;;;;;;25.76;29.55;97931.31;4924737;28;20039;-62
2022/01/26 07:58:36;;;;;;;11.85;4.07;;;;;;;25.76;29.78;97918.19;4920580;28;20532;-62
2022/01/26 08:01:01;;;;;;;11.60;3.85;;;;;;;25.75;29.81;97929.63;4927609;29;20031;-62
2022/01/26 08:03:33;;;;;;;9.25;3.70;;;;;;;25.75;29.44;97927.00;4923817;29;20028;-60
2022/01/26 08:05:59;;;;;;;9.13;3.30;;;;;;;25.75;29.96;97924.38;4923911;29;20081;-61
2022/01/26 08:08:26;;;;;;;12.52;3.47;;;;;;;25.76;29.89;97933.94;4916819;28;20047;-61
2022/01/26 08:10:51;;;;;;;10.73;3.58;;;;;;;25.76;29.56;97939.19;4922007;28;20035;-61
2022/01/26 08:13:16;;;;;;;16.08;3.28;;;;;;;25.77;29.91;97927.78;4911293;29;20949;-61
2022/01/26 08:15:42;;;;;;;9.73;3.35;;;;;;;25.76;30.02;97936.56;4938785;28;20151;-62
2022/01/26 08:18:07;;;;;;;9.90;3.22;;;;;;;25.77;29.99;97938.28;4926266;29;20142;-61
2022/01/26 08:20:33;;;;;;;11.38;3.95;;;;;;;25.79;29.30;97935.59;4920522;28;20588;-60
2022/01/26 08:22:59;;;;;;;8.40;3.67;;;;;;;25.80;29.85;97943.44;4929379;29;20587;-60
2022/01/26 08:25:24;;;;;;;9.75;3.42;;;;;;;25.79;29.63;97933.84;4920924;29;20035;-61
2022/01/26 08:30:39;;;;;;;5.45;2.80;;;;;;;25.81;29.59;97945.16;4919921;29;20043;-62
2022/01/26 08:33:05;;;;;;;5.72;2.92;;;;;;;25.82;29.65;97952.09;4906166;29;20027;-61
2022/01/26 08:35:31;;;;;;;6.82;3.13;;;;;;;25.82;29.96;97940.75;4922871;28;20027;-61
2022/01/26 08:37:56;;;;;;;5.07;2.50;;;;;;;25.83;29.88;97952.97;4924936;28;20054;-62
2022/01/26 08:40:21;;;;;;;4.78;2.75;;;;;;;25.83;29.57;97961.69;4920631;28;20845;-62
2022/01/26 08:42:47;;;;;;;7.45;3.20;;;;;;;25.81;29.95;97966.16;4914571;28;20037;-61
2022/01/26 08:45:13;;;;;;;7.25;3.20;;;;;;;25.83;30.07;97977.44;4924172;29;20035;-62
2022/01/26 08:47:39;;;;;;;8.63;3.17;;;;;;;25.83;29.54;97974.81;4925680;29;20035;-60
2022/01/26 08:50:05;;;;;;;11.02;3.47;;;;;;;25.82;29.41;97959.97;4922490;29;20039;-62
2022/01/26 08:52:31;;;;;;;6.65;3.00;;;;;;;25.83;29.78;97961.69;4922161;29;20031;-62
2022/01/26 08:54:56;;;;;;;7.45;3.15;;;;;;;25.83;29.70;97964.31;4923126;29;20059;-61
2022/01/26 08:57:21;;;;;;;5.35;2.80;;;;;;;25.83;29.74;97966.94;4922041;29;20132;-62
2022/01/26 08:59:47;;;;;;;5.63;2.60;;;;;;;25.84;29.81;97965.19;4919793;28;20619;-62
2022/01/26 09:02:12;;;;;;;5.07;2.50;;;;;;;25.85;30.19;97966.06;4922515;29;20649;-61
2022/01/26 09:04:38;;;;;;;5.28;2.65;;;;;;;25.85;29.66;97966.88;4922119;29;20027;-62
2022/01/26 09:07:04;;;;;;;4.88;2.35;;;;;;;25.86;29.95;97973.88;4920242;29;20035;-62
2022/01/26 09:09:33;;;;;;;6.93;3.17;;;;;;;25.86;29.97;97975.63;4919309;28;20032;-59
2022/01/26 09:12:01;;;;;;;4.60;2.60;;;;;;;25.88;29.57;97976.44;4919728;28;20031;-61
2022/01/26 09:14:28;;;;;;;6.32;2.50;;;;;;;25.86;30.15;97979.13;4922664;29;20037;-60
2022/01/26 09:16:54;;;;;;;5.28;2.92;;;;;;;25.88;29.91;97981.69;4918662;29;20074;-60
2022/01/26 09:19:28;;;;;;;6.93;2.47;;;;;;;25.89;29.90;97978.16;4925504;29;20031;-61
2022/01/26 09:21:58;;;;;;;9.25;2.60;;;;;;;25.90;30.04;97995.63;4915166;28;20095;-62
2022/01/26 09:24:28;;;;;;;4.70;2.40;;;;;;;25.91;30.14;97992.09;4917506;28;20131;-61
2022/01/26 09:26:54;;;;;;;20.92;11.70;;;;;;;25.76;24.19;97994.34;4926141;28;20038;-62
2022/01/26 09:29:19;;;;;;;21.85;13.68;;;;;;;25.47;21.44;97993.50;4911276;28;20039;-60
2022/01/26 09:31:47;;;;;;;19.50;12.70;;;;;;;25.15;21.44;97971.78;4919537;28;20039;-60
2022/01/26 09:34:15;;;;;;;13.43;9.95;;;;;;;24.92;22.53;97970.75;4921965;29;20752;-61
2022/01/26 09:36:40;;;;;;;15.43;9.05;;;;;;;24.78;23.48;97974.63;4919482;29;20028;-61
2022/01/26 09:39:06;;;;;;;11.55;7.40;;;;;;;24.72;24.05;97974.81;4918219;28;20022;-60
2022/01/26 09:41:32;;;;;;;7.88;6.75;;;;;;;24.69;24.59;97980.13;4910330;29;20398;-62
2022/01/26 09:43:58;;;;;;;9.07;6.15;;;;;;;24.67;25.00;97989.78;4919981;28;20587;-60
2022/01/26 09:46:24;;;;;;;7.60;5.57;;;;;;;24.70;25.55;97981.84;4911686;28;20046;-61
2022/01/26 09:48:49;;;;;;;8.35;5.53;;;;;;;24.73;25.76;97976.53;4928450;28;20035;-60
2022/01/26 09:51:17;;;;;;;9.25;4.97;;;;;;;24.76;26.05;97955.47;4914660;28;20068;-62
2022/01/26 09:53:42;;;;;;;6.80;4.68;;;;;;;24.82;25.86;97953.56;4909184;28;20677;-60
2022/01/26 09:56:08;;;;;;;8.93;4.65;;;;;;;24.84;26.22;97951.75;4907964;28;20066;-62
2022/01/26 09:58:34;;;;;;;7.35;4.32;;;;;;;24.88;26.29;97943.78;4912577;28;20040;-61
2022/01/26 10:01:00;;;;;;;8.85;4.45;;;;;;;24.93;26.50;97927.88;4910351;28;20039;-62
2022/01/26 10:03:33;;;;;;;11.93;4.32;;;;;;;24.96;26.64;97933.03;4922780;28;20031;-62
2022/01/26 10:05:58;;;;;;;9.77;3.88;;;;;;;25.01;26.41;97936.38;4924899;28;20040;-61
2022/01/26 10:08:49;;;;;;;5.75;4.25;;;;;;;25.04;26.77;97941.53;4913181;28;20063;-63
2022/01/26 10:19:25;;;;;;;13.82;9.13;;;;;;;25.13;26.29;97932.47;4929202;28;20042;-61
2022/01/26 10:21:51;;;;;;;17.38;8.82;;;;;;;25.12;26.24;97924.66;4915021;28;20067;-60
2022/01/26 10:24:28;;;;;;;13.82;8.45;;;;;;;25.13;26.43;97939.50;4916756;28;20167;-63
2022/01/26 10:26:58;;;;;;;15.30;8.65;;;;;;;25.12;26.21;97930.78;4917986;28;20098;-63
2022/01/26 10:29:23;;;;;;;15.00;8.30;;;;;;;25.13;26.58;97918.53;4922298;28;20538;-64
2022/01/26 10:31:49;;;;;;;12.95;7.88;;;;;;;25.14;26.59;97917.63;4933213;28;20085;-61
2022/01/26 10:34:19;;;;;;;14.07;8.68;;;;;;;25.14;26.57;97912.38;4921356;28;20153;-61
2022/01/26 10:36:50;;;;;;;15.18;7.88;;;;;;;25.16;26.46;97910.53;4929016;28;20036;-61
2022/01/26 10:39:28;;;;;;;8.70;6.03;;;;;;;25.17;26.43;97901.78;4930060;28;20037;-62
2022/01/26 10:41:57;;;;;;;9.80;4.38;;;;;;;25.16;26.65;97900.03;4902015;28;20179;-60
2022/01/26 10:44:40;;;;;;;8.63;4.60;;;;;;;25.15;27.39;97895.72;4912230;28;20037;-61
2022/01/26 10:47:07;;;;;;;6.72;4.53;;;;;;;25.16;27.90;97902.66;4914692;28;20725;-66
2022/01/26 10:49:55;;;;;;;8.60;4.93;;;;;;;25.18;27.94;97908.75;4925294;28;20775;-62
2022/01/26 10:52:34;;;;;;;9.30;4.53;;;;;;;25.25;28.46;97920.72;4909593;28;20050;-64
2022/01/26 10:55:00;;;;;;;15.07;4.53;;;;;;;25.34;28.49;97927.44;4898241;28;20086;-65
2022/01/26 10:57:25;;;;;;;9.10;4.25;;;;;;;25.46;28.16;97918.31;4911701;28;20035;-64
2022/01/26 10:59:51;;;;;;;7.90;4.00;;;;;;;25.60;27.70;97924.88;4912409;28;20099;-63
2022/01/26 11:02:22;;;;;;;8.38;4.45;;;;;;;25.73;27.97;97923.53;4915210;28;20035;-62
2022/01/26 11:04:48;;;;;;;7.13;3.87;;;;;;;25.87;27.83;97916.94;4911403;28;20035;-61
2022/01/26 11:07:16;;;;;;;8.82;4.68;;;;;;;26.00;27.68;97927.88;4911151;28;20102;-62
2022/01/26 11:09:48;;;;;;;7.88;3.75;;;;;;;26.16;27.87;97938.69;4924104;28;20114;-64
2022/01/26 11:12:15;;;;;;;6.95;3.55;;;;;;;26.28;27.23;97945.28;4912472;28;20143;-70
2022/01/26 11:14:51;;;;;;;7.47;4.25;;;;;;;26.42;27.39;97957.91;4913740;28;20058;-68
2022/01/26 11:17:46;;;;;;;12.00;3.50;;;;;;;26.53;26.87;97947.84;4918256;28;20031;-68
2022/01/26 11:20:33;;;;;;;8.18;3.42;;;;;;;26.67;26.80;97959.63;4918776;28;20039;-71
2022/01/26 11:23:03;;;;;;;5.93;3.40;;;;;;;26.78;26.55;97957.44;4921000;28;20206;-71
2022/01/26 11:25:30;;;;;;;7.60;3.17;;;;;;;26.86;26.67;97955.34;4920109;28;20035;-69
2022/01/26 11:27:56;;;;;;;5.35;3.60;;;;;;;26.96;26.78;97960.31;4912125;28;20062;-70
2022/01/26 11:30:31;;;;;;;7.78;3.28;;;;;;;27.02;26.53;97965.31;4911059;28;20259;-73
2022/01/26 11:32:59;;;;;;;6.75;3.38;;;;;;;27.09;26.59;97948.38;4909448;28;20039;-70
2022/01/26 11:35:37;;;;;;;4.97;3.13;;;;;;;27.15;26.49;97941.16;4915081;28;20042;-71
2022/01/26 11:46:24;;;;;;;8.68;3.20;;;;;;;27.29;26.38;97912.47;4916496;28;21905;-71
2022/01/26 11:49:10;;;;;;;4.30;2.90;;;;;;;27.28;26.46;97923.94;4912419;28;20035;-69
2022/01/26 11:51:44;;;;;;;5.13;3.17;;;;;;;27.31;26.71;97926.41;4927392;28;20035;-72
2022/01/26 11:54:12;;;;;;;5.72;3.25;;;;;;;27.33;26.31;97932.50;4914585;29;20394;-67
2022/01/26 11:56:38;;;;;;;7.97;3.05;;;;;;;27.34;26.54;97944.72;4922219;29;20027;-68
2022/01/26 11:59:03;;;;;;;7.15;3.50;;;;;;;27.35;26.45;97930.63;4924002;29;20030;-68
2022/01/26 12:01:38;;;;;;;4.95;2.80;;;;;;;27.37;26.45;97928.81;4924224;28;20461;-71
2022/01/26 12:04:09;;;;;;;6.32;3.17;;;;;;;27.36;26.41;97908.69;4923054;28;20078;-69
2022/01/26 12:06:38;;;;;;;6.50;3.60;;;;;;;27.38;26.57;97913.84;4922128;28;20023;-68
2022/01/26 12:09:06;;;;;;;4.40;2.70;;;;;;;27.38;26.53;97919.13;4924476;29;20146;-69
2022/01/26 12:11:31;;;;;;;4.78;2.97;;;;;;;27.38;26.50;97922.63;4936773;28;20027;-69
2022/01/26 12:13:58;;;;;;;6.10;3.05;;;;;;;27.39;26.26;97916.44;4919089;28;20043;-69
2022/01/26 12:16:24;;;;;;;5.22;3.10;;;;;;;27.39;26.44;97903.28;4935854;28;20032;-65
2022/01/26 12:18:59;;;;;;;6.32;3.17;;;;;;;27.39;26.36;97908.53;4917090;29;20049;-66
2022/01/26 12:32:51;;;;;;;5.10;2.83;;;;;;;27.39;26.66;97923.50;4923218;29;20122;-66
2022/01/26 12:36:32;;;;;;;5.95;2.85;;;;;;;27.41;26.76;97912.91;4934059;28;20751;-65
2022/01/26 12:38:45;;;;;;;7.18;3.15;;;;;;;27.39;26.67;97903.28;4914779;28;20039;-66
2022/01/26 12:43:36;;;;;;;3.28;2.60;;;;;;;27.42;26.85;97909.34;4918956;28;20716;-67
2022/01/26 12:46:02;;;;;;;3.90;2.65;;;;;;;27.43;26.91;97904.00;4916314;28;20034;-67
2022/01/26 12:48:29;;;;;;;4.50;2.67;;;;;;;27.43;26.79;97896.13;4916258;29;20107;-65
2022/01/26 12:50:54;;;;;;;4.28;2.92;;;;;;;27.44;26.85;97903.09;4919397;29;20610;-67
2022/01/26 12:53:26;;;;;;;4.65;2.45;;;;;;;27.45;26.76;97899.53;4922662;29;20034;-65
2022/01/26 12:55:57;;;;;;;6.43;3.03;;;;;;;27.47;26.46;97902.97;4934464;28;20034;-71
2022/01/26 12:58:35;;;;;;;5.38;2.72;;;;;;;27.44;26.79;97903.09;4920675;29;20039;-68
2022/01/26 13:01:07;;;;;;;3.95;2.50;;;;;;;27.48;26.85;97912.56;4927701;28;20031;-69
2022/01/26 13:03:35;;;;;;;3.47;2.47;;;;;;;27.48;26.76;97914.34;4921873;29;20975;-68
2022/01/26 13:06:25;;;;;;;3.47;2.55;;;;;;;27.50;26.77;97896.72;4921943;29;20023;-68
2022/01/26 13:08:58;;;;;;;6.13;2.80;;;;;;;27.51;26.58;97903.69;4909478;29;20043;-68
2022/01/26 13:11:31;;;;;;;4.53;2.70;;;;;;;27.53;26.76;97896.56;4921274;28;20031;-69
2022/01/26 13:14:13;;;;;;;4.90;2.35;;;;;;;27.55;26.89;97889.47;4935074;28;20418;-68
2022/01/26 13:16:42;;;;;;;5.22;2.63;;;;;;;27.58;26.54;97888.47;4920359;28;20095;-68
2022/01/26 13:21:44;;;;;;;4.13;2.38;;;;;;;27.65;26.91;97890.78;4919119;29;20042;-70
2022/01/26 13:24:50;;;;;;;4.95;2.75;;;;;;;27.69;26.72;97903.84;4927517;29;20046;-69
2022/01/26 13:27:20;;;;;;;3.33;2.58;;;;;;;27.73;27.02;97913.31;4923018;28;20050;-67
2022/01/26 13:43:39;;;;;;;4.20;2.30;;;;;;;27.81;26.44;97911.22;4887731;29;20032;-63
2022/01/26 13:56:57;;;;;;;8.18;6.45;;;;;;;27.78;26.38;97903.44;4913907;28;20035;-60
2022/01/26 13:59:30;;;;;;;10.73;5.43;;;;;;;27.73;26.40;97898.34;4919347;29;20604;-60
2022/01/26 14:01:57;;;;;;;8.35;5.05;;;;;;;27.70;26.19;97905.53;4920831;29;20031;-60
2022/01/26 14:04:22;;;;;;;12.38;5.15;;;;;;;27.65;26.36;97896.06;4936809;28;20061;-60
2022/01/26 14:06:48;;;;;;;10.18;5.13;;;;;;;27.62;26.51;97900.63;4921470;29;20769;-60
2022/01/26 14:09:14;;;;;;;5.65;4.00;;;;;;;27.57;26.47;97898.13;4922248;29;20812;-59
2022/01/26 14:11:39;;;;;;;10.57;4.38;;;;;;;27.54;26.69;97898.28;4919163;28;20031;-60
2022/01/26 14:14:05;;;;;;;7.45;4.07;;;;;;;27.50;26.67;97891.44;4919034;28;20031;-59
2022/01/26 14:16:38;;;;;;;11.20;4.20;;;;;;;27.47;26.72;97888.94;4921206;29;20038;-60
2022/01/26 14:26:43;;;;;;;9.20;3.63;;;;;;;27.31;26.94;97905.34;4922409;29;20046;-58